createdAt,value
2018-12-12T00:02:34.869Z,102721.33
2018-12-12T00:05:38.711Z,102721.52
2018-12-12T00:08:42.318Z,102722.01
2018-12-12T00:11:46.976Z,102726.03
2018-12-12T00:14:50.503Z,102725.78
2018-12-12T00:17:54.129Z,102726.21
2018-12-12T00:20:57.756Z,102718.97
2018-12-12T00:24:01.554Z,102721.97
2018-12-12T00:27:05.340Z,102724.53
2018-12-12T00:30:08.912Z,102716.03
2018-12-12T00:33:12.469Z,102714.89
2018-12-12T00:36:16.175Z,102718.94
2018-12-12T00:39:19.798Z,102714.13
2018-12-12T00:42:23.429Z,102711.65
2018-12-12T00:45:26.997Z,102704.74
2018-12-12T00:48:30.788Z,102706.21
2018-12-12T00:51:34.383Z,102704.83
2018-12-12T00:54:39.118Z,102704.52
2018-12-12T00:57:43.768Z,102709.27
2018-12-12T01:00:47.328Z,102707.94
2018-12-12T01:03:51.007Z,102715.84
2018-12-12T01:06:54.631Z,102718.99
2018-12-12T01:09:59.299Z,102716.50
2018-12-12T01:13:03.084Z,102713.73
2018-12-12T01:16:06.677Z,102715.54
2018-12-12T01:19:10.334Z,102714.36
2018-12-12T01:22:13.938Z,102711.47
2018-12-12T01:25:17.485Z,102713.45
2018-12-12T01:28:20.967Z,102713.00
2018-12-12T01:31:24.597Z,102711.30
2018-12-12T01:34:28.470Z,102709.22
2018-12-12T01:37:32.029Z,102706.69
2018-12-12T01:40:35.661Z,102700.12
2018-12-12T01:43:39.218Z,102699.20
2018-12-12T01:46:43.857Z,102705.94
2018-12-12T01:49:47.445Z,102698.65
2018-12-12T01:52:51.027Z,102695.25
2018-12-12T01:55:55.860Z,102695.36
2018-12-12T01:58:59.462Z,102692.75
2018-12-12T02:02:03.087Z,102687.67
2018-12-12T02:05:06.702Z,102696.62
2018-12-12T02:08:10.272Z,102697.85
2018-12-12T02:11:13.986Z,102697.12
2018-12-12T02:14:17.717Z,102700.36
2018-12-12T02:17:21.404Z,102708.84
2018-12-12T02:20:25.062Z,102703.07
2018-12-12T02:23:28.729Z,102709.98
2018-12-12T02:26:32.575Z,102703.19
2018-12-12T02:29:36.227Z,102713.23
2018-12-12T02:32:39.821Z,102715.69
2018-12-12T02:35:43.519Z,102707.89
2018-12-12T02:38:47.137Z,102698.70
2018-12-12T02:41:50.699Z,102696.90
2018-12-12T02:44:54.306Z,102699.27
2018-12-12T02:47:57.939Z,102698.61
2018-12-12T02:51:02.650Z,102694.24
2018-12-12T02:54:06.331Z,102691.94
2018-12-12T02:57:11.042Z,102698.87
2018-12-12T03:00:14.674Z,102692.67
2018-12-12T03:03:18.242Z,102699.39
2018-12-12T03:06:21.788Z,102701.61
2018-12-12T03:09:25.375Z,102704.29
2018-12-12T03:12:29.192Z,102702.24
2018-12-12T03:15:32.810Z,102707.04
2018-12-12T03:18:36.397Z,102703.01
2018-12-12T03:21:40.049Z,102704.83
2018-12-12T03:24:43.554Z,102698.34
2018-12-12T03:27:47.163Z,102692.20
2018-12-12T03:30:50.788Z,102701.51
2018-12-12T03:33:54.324Z,102698.24
2018-12-12T03:36:57.895Z,102697.74
2018-12-12T03:40:02.614Z,102695.59
2018-12-12T03:43:06.265Z,102691.30
2018-12-12T03:46:09.860Z,102695.08
2018-12-12T03:49:13.831Z,102692.00
2018-12-12T03:52:17.383Z,102698.69
2018-12-12T03:55:21.050Z,102703.27
2018-12-12T03:58:24.655Z,102697.30
2018-12-12T04:01:28.602Z,102703.14
2018-12-12T04:04:32.286Z,102704.72
2018-12-12T04:07:36.207Z,102711.29
2018-12-12T04:10:39.814Z,102711.77
2018-12-12T04:13:43.317Z,102708.09
2018-12-12T04:16:47.007Z,102703.20
2018-12-12T04:19:50.518Z,102706.44
2018-12-12T04:22:54.103Z,102706.06
2018-12-12T04:25:57.794Z,102716.50
2018-12-12T04:29:01.279Z,102716.73
2018-12-12T04:32:05.133Z,102716.32
2018-12-12T04:35:08.872Z,102713.75
2018-12-12T04:38:12.685Z,102711.44
2018-12-12T04:41:16.392Z,102710.41
2018-12-12T04:44:19.897Z,102704.27
2018-12-12T04:47:23.424Z,102704.93
2018-12-12T04:50:27.003Z,102708.01
2018-12-12T04:53:30.560Z,102706.70
2018-12-12T04:56:34.670Z,102705.54
2018-12-12T04:59:38.705Z,102707.48
2018-12-12T05:02:42.252Z,102712.02
2018-12-12T05:05:46.270Z,102716.62
2018-12-12T05:08:49.780Z,102717.22
2018-12-12T05:11:53.382Z,102720.10
2018-12-12T05:14:57.275Z,102713.40
2018-12-12T05:18:00.927Z,102710.60
2018-12-12T05:21:04.536Z,102705.95
2018-12-12T05:24:08.199Z,102716.00
2018-12-12T05:27:11.705Z,102709.08
2018-12-12T05:30:15.262Z,102708.80
2018-12-12T05:33:18.698Z,102708.94
2018-12-12T05:36:22.213Z,102712.17
2018-12-12T05:39:26.276Z,102711.88
2018-12-12T05:42:30.236Z,102722.76
2018-12-12T05:45:33.834Z,102716.66
2018-12-12T05:48:37.231Z,102717.58
2018-12-12T05:51:41.133Z,102721.78
2018-12-12T05:54:44.645Z,102716.18
2018-12-12T05:57:48.109Z,102711.05
2018-12-12T06:00:51.648Z,102709.73
2018-12-12T06:03:55.034Z,102700.65
2018-12-12T06:06:58.445Z,102708.91
2018-12-12T06:10:01.850Z,102711.47
2018-12-12T06:13:05.563Z,102714.43
2018-12-12T06:16:08.956Z,102721.31
2018-12-12T06:19:12.357Z,102711.92
2018-12-12T06:22:23.518Z,102712.62
2018-12-12T06:25:26.943Z,102713.83
2018-12-12T06:28:30.307Z,102715.39
2018-12-12T06:31:34.133Z,102710.90
2018-12-12T06:34:37.657Z,102711.13
2018-12-12T06:37:41.172Z,102717.86
2018-12-12T06:40:44.604Z,102718.29
2018-12-12T06:43:48.450Z,102713.22
2018-12-12T06:46:51.987Z,102719.35
2018-12-12T06:49:55.487Z,102722.79
2018-12-12T06:52:58.944Z,102720.68
2018-12-12T06:56:02.641Z,102721.87
2018-12-12T06:59:06.170Z,102726.71
2018-12-12T07:02:09.733Z,102722.63
2018-12-12T07:05:13.298Z,102721.96
2018-12-12T07:08:16.671Z,102726.86
2018-12-12T07:11:20.161Z,102723.76
2018-12-12T07:14:23.623Z,102721.97
2018-12-12T07:17:27.237Z,102724.95
2018-12-12T07:20:30.613Z,102723.65
2018-12-12T07:23:34.207Z,102726.05
2018-12-12T07:26:37.683Z,102734.91
2018-12-12T07:29:41.220Z,102733.36
2018-12-12T07:32:44.723Z,102744.90
2018-12-12T07:35:48.457Z,102750.04
2018-12-12T07:38:51.914Z,102748.98
2018-12-12T07:41:55.419Z,102747.39
2018-12-12T07:44:59.019Z,102748.86
2018-12-12T07:48:02.508Z,102750.66
2018-12-12T07:51:06.108Z,102747.79
2018-12-12T07:54:09.868Z,102744.55
2018-12-12T07:57:13.388Z,102747.94
2018-12-12T08:00:16.899Z,102744.88
2018-12-12T08:03:20.601Z,102747.72
2018-12-12T08:06:24.070Z,102749.75
2018-12-12T08:09:27.617Z,102755.02
2018-12-12T08:12:31.327Z,102752.52
2018-12-12T08:15:34.883Z,102756.88
2018-12-12T08:18:38.690Z,102760.36
2018-12-12T08:21:42.120Z,102755.02
2018-12-12T08:24:45.615Z,102751.08
2018-12-12T08:27:49.443Z,102752.40
2018-12-12T08:30:53.061Z,102750.87
2018-12-12T08:33:56.613Z,102757.07
2018-12-12T08:37:00.108Z,102750.76
2018-12-12T08:40:05.314Z,102755.62
2018-12-12T08:43:09.296Z,102758.16
2018-12-12T08:46:12.734Z,102755.06
2018-12-12T08:49:16.446Z,102757.14
2018-12-12T08:52:20.145Z,102758.20
2018-12-12T08:55:24.073Z,102758.60
2018-12-12T08:58:28.843Z,102766.93
2018-12-12T09:01:32.405Z,102768.91
2018-12-12T09:04:35.999Z,102767.43
2018-12-12T09:07:39.414Z,102774.63
2018-12-12T09:10:46.418Z,102776.43
2018-12-12T09:13:50.088Z,102771.96
2018-12-12T09:16:53.915Z,102774.07
2018-12-12T09:19:57.572Z,102766.56
2018-12-12T09:23:01.098Z,102765.95
2018-12-12T09:26:04.812Z,102772.99
2018-12-12T09:29:08.416Z,102767.87
2018-12-12T09:32:11.900Z,102760.32
2018-12-12T09:35:16.495Z,102756.35
2018-12-12T09:38:20.055Z,102755.93
2018-12-12T09:41:23.650Z,102755.59
2018-12-12T09:44:27.192Z,102746.63
2018-12-12T09:47:31.019Z,102744.02
2018-12-12T09:50:34.534Z,102741.45
2018-12-12T09:53:38.100Z,102732.74
2018-12-12T09:56:41.558Z,102735.34
2018-12-12T09:59:45.048Z,102736.13
2018-12-12T10:02:48.606Z,102735.14
2018-12-12T10:05:52.395Z,102738.01
2018-12-12T10:08:55.942Z,102736.39
2018-12-12T10:11:59.836Z,102735.79
2018-12-12T10:15:03.424Z,102737.92
2018-12-12T10:18:07.042Z,102733.93
2018-12-12T10:21:10.716Z,102735.03
2018-12-12T10:24:14.434Z,102728.23
2018-12-12T10:27:17.909Z,102721.44
2018-12-12T10:30:21.386Z,102723.01
2018-12-12T10:33:24.966Z,102717.72
2018-12-12T10:36:29.529Z,102721.10
2018-12-12T10:39:33.681Z,102720.40
2018-12-12T10:42:37.150Z,102714.86
2018-12-12T10:45:40.987Z,102712.10
2018-12-12T10:48:44.578Z,102700.11
2018-12-12T10:51:48.108Z,102692.83
2018-12-12T10:54:51.614Z,102694.91
2018-12-12T10:57:55.036Z,102694.19
2018-12-12T11:01:03.946Z,102694.92
2018-12-12T11:04:07.596Z,102699.23
2018-12-12T11:07:11.216Z,102689.34
2018-12-12T11:10:14.769Z,102687.72
2018-12-12T11:13:18.465Z,102687.39
2018-12-12T11:16:21.903Z,102684.22
2018-12-12T11:19:25.501Z,102677.38
2018-12-12T11:22:31.348Z,102673.04
2018-12-12T11:25:34.747Z,102667.21
2018-12-12T11:28:38.187Z,102662.60
2018-12-12T11:31:41.583Z,102663.28
2018-12-12T11:34:45.069Z,102657.10
2018-12-12T11:37:48.793Z,102650.91
2018-12-12T11:40:52.331Z,102654.41
2018-12-12T11:43:55.950Z,102645.56
2018-12-12T11:46:59.455Z,102641.57
2018-12-12T11:50:03.263Z,102645.37
2018-12-12T11:53:06.760Z,102641.63
2018-12-12T11:56:11.351Z,102636.15
2018-12-12T11:59:18.674Z,102637.86
2018-12-12T12:02:22.298Z,102633.53
2018-12-12T12:05:25.920Z,102634.88
2018-12-12T12:08:29.589Z,102634.56
2018-12-12T12:11:33.202Z,102625.35
2018-12-12T12:14:36.771Z,102627.91
2018-12-12T12:17:40.371Z,102629.55
2018-12-12T12:20:44.014Z,102622.33
2018-12-12T12:23:47.471Z,102623.08
2018-12-12T12:26:51.122Z,102616.84
2018-12-12T12:29:54.742Z,102618.47
2018-12-12T12:32:58.238Z,102606.59
2018-12-12T12:36:02.050Z,102608.00
2018-12-12T12:39:08.357Z,102605.90
2018-12-12T12:42:12.996Z,102605.17
2018-12-12T12:45:16.617Z,102596.34
2018-12-12T12:48:20.461Z,102599.50
2018-12-12T12:51:24.047Z,102597.03
2018-12-12T12:54:27.624Z,102593.72
2018-12-12T12:57:31.270Z,102592.63
2018-12-12T13:00:34.882Z,102591.05
2018-12-12T13:03:38.753Z,102592.67
2018-12-12T13:06:42.379Z,102587.64
2018-12-12T13:09:45.967Z,102585.80
2018-12-12T13:12:49.498Z,102583.54
2018-12-12T13:15:53.128Z,102583.82
2018-12-12T13:18:56.735Z,102580.26
2018-12-12T13:22:00.415Z,102582.04
2018-12-12T13:25:04.026Z,102579.31
2018-12-12T13:28:07.491Z,102584.32
2018-12-12T13:31:11.069Z,102582.46
2018-12-12T13:34:16.415Z,102578.08
2018-12-12T13:37:18.290Z,102581.41
2018-12-12T13:40:21.831Z,102580.24
2018-12-12T13:43:25.401Z,102585.30
2018-12-12T13:46:28.937Z,102586.05
2018-12-12T13:49:33.432Z,102585.72
2018-12-12T13:52:36.906Z,102579.40
2018-12-12T13:55:41.513Z,102570.04
2018-12-12T13:58:44.962Z,102577.16
2018-12-12T14:01:48.388Z,102571.95
2018-12-12T14:04:52.127Z,102574.29
2018-12-12T14:07:55.647Z,102569.74
2018-12-12T14:10:59.461Z,102575.73
2018-12-12T14:14:02.953Z,102573.82
2018-12-12T14:17:06.662Z,102570.05
2018-12-12T14:20:10.328Z,102569.72
2018-12-12T14:23:14.882Z,102569.82
2018-12-12T14:26:18.508Z,102566.43
2018-12-12T14:29:21.967Z,102561.52
2018-12-12T14:32:25.821Z,102561.52
2018-12-12T14:35:29.401Z,102554.74
2018-12-12T14:38:33.904Z,102562.75
2018-12-12T14:41:37.329Z,102554.68
2018-12-12T14:44:41.022Z,102555.79
2018-12-12T14:47:44.545Z,102554.25
2018-12-12T14:50:48.029Z,102553.37
2018-12-12T14:53:51.724Z,102552.48
2018-12-12T14:56:55.326Z,102555.48
2018-12-12T14:59:58.981Z,102554.44
2018-12-12T15:03:02.835Z,102553.04
2018-12-12T15:06:06.598Z,102558.38
2018-12-12T15:09:10.322Z,102552.38
2018-12-12T15:12:13.937Z,102553.37
2018-12-12T15:15:17.577Z,102549.28
2018-12-12T15:18:21.524Z,102549.04
2018-12-12T15:21:25.852Z,102552.41
2018-12-12T15:24:28.943Z,102549.97
2018-12-12T15:27:32.647Z,102547.16
2018-12-12T15:30:41.082Z,102542.02
2018-12-12T15:33:43.619Z,102550.67
2018-12-12T15:36:47.126Z,102554.50
2018-12-12T15:39:50.768Z,102552.34
2018-12-12T15:42:54.435Z,102552.22
2018-12-12T15:45:58.077Z,102551.85
2018-12-12T15:49:01.675Z,102549.54
2018-12-12T15:52:06.309Z,102545.25
2018-12-12T15:55:09.944Z,102547.81
2018-12-12T15:58:13.536Z,102547.74
2018-12-12T16:01:17.326Z,102544.88
2018-12-12T16:04:20.989Z,102545.97
2018-12-12T16:07:24.700Z,102541.29
2018-12-12T16:10:28.269Z,102541.87
2018-12-12T16:13:31.815Z,102532.37
2018-12-12T16:16:35.445Z,102538.27
2018-12-12T16:19:39.113Z,102544.23
2018-12-12T16:22:42.754Z,102544.19
2018-12-12T16:25:46.368Z,102544.39
2018-12-12T16:28:49.975Z,102540.50
2018-12-12T16:31:54.616Z,102542.44
2018-12-12T16:34:58.327Z,102541.27
2018-12-12T16:38:05.616Z,102543.76
2018-12-12T16:41:10.248Z,102543.91
2018-12-12T16:44:16.313Z,102540.92
2018-12-12T16:47:20.165Z,102543.71
2018-12-12T16:50:24.725Z,102553.55
2018-12-12T16:53:28.425Z,102544.27
2018-12-12T16:56:31.867Z,102542.85
2018-12-12T16:59:35.372Z,102544.85
2018-12-12T17:02:38.840Z,102545.51
2018-12-12T17:05:42.444Z,102540.33
2018-12-12T17:08:47.755Z,102533.50
2018-12-12T17:11:51.300Z,102537.76
2018-12-12T17:14:54.895Z,102530.11
2018-12-12T17:17:59.584Z,102531.75
2018-12-12T17:21:03.327Z,102528.98
2018-12-12T17:24:07.037Z,102528.83
2018-12-12T17:27:11.274Z,102535.00
2018-12-12T17:30:15.002Z,102532.95
2018-12-12T17:33:19.004Z,102530.84
2018-12-12T17:36:22.542Z,102528.06
2018-12-12T17:39:26.211Z,102523.42
2018-12-12T17:42:29.779Z,102521.84
2018-12-12T17:45:33.602Z,102522.89
2018-12-12T17:48:37.014Z,102522.36
2018-12-12T17:51:41.753Z,102521.12
2018-12-12T17:54:45.261Z,102518.69
2018-12-12T17:57:49.230Z,102516.14
2018-12-12T18:00:54.186Z,102521.02
2018-12-12T18:03:57.879Z,102524.70
2018-12-12T18:07:01.311Z,102519.33
2018-12-12T18:10:05.311Z,102524.45
2018-12-12T18:13:09.904Z,102512.53
2018-12-12T18:16:13.746Z,102510.28
2018-12-12T18:19:17.409Z,102507.83
2018-12-12T18:22:21.771Z,102515.10
2018-12-12T18:25:25.319Z,102513.92
2018-12-12T18:28:28.875Z,102509.70
2018-12-12T18:31:32.593Z,102499.22
2018-12-12T18:34:36.407Z,102504.11
2018-12-12T18:37:40.001Z,102498.76
2018-12-12T18:40:46.044Z,102501.01
2018-12-12T18:43:49.464Z,102505.83
2018-12-12T18:46:53.973Z,102505.84
2018-12-12T18:49:57.536Z,102516.88
2018-12-12T18:53:01.271Z,102512.34
2018-12-12T18:56:05.760Z,102514.93
2018-12-12T18:59:09.346Z,102511.20
2018-12-12T19:02:12.901Z,102512.81
2018-12-12T19:05:16.609Z,102511.84
2018-12-12T19:08:20.340Z,102512.54
2018-12-12T19:11:23.960Z,102520.60
2018-12-12T19:14:27.792Z,102512.63
2018-12-12T19:17:31.363Z,102509.62
2018-12-12T19:20:35.100Z,102508.46
2018-12-12T19:23:38.983Z,102512.66
2018-12-12T19:26:43.118Z,102510.18
2018-12-12T19:29:48.451Z,102513.32
2018-12-12T19:32:53.034Z,102509.46
2018-12-12T19:35:56.813Z,102508.28
2018-12-12T19:39:00.284Z,102511.45
2018-12-12T19:42:03.733Z,102508.71
2018-12-12T19:45:08.051Z,102508.80
2018-12-12T19:48:11.723Z,102503.81
2018-12-12T19:51:15.432Z,102501.14
2018-12-12T19:54:18.826Z,102504.58
2018-12-12T19:57:22.359Z,102493.60
2018-12-12T20:00:26.155Z,102498.97
2018-12-12T20:03:36.145Z,102498.84
2018-12-12T20:06:39.701Z,102497.53
2018-12-12T20:09:43.241Z,102492.53
2018-12-12T20:12:46.717Z,102493.21
2018-12-12T20:15:50.248Z,102492.96
2018-12-12T20:18:54.240Z,102490.66
2018-12-12T20:21:57.704Z,102491.20
2018-12-12T20:25:01.464Z,102492.69
2018-12-12T20:28:04.935Z,102490.50
2018-12-12T20:31:10.007Z,102493.54
2018-12-12T20:34:13.405Z,102486.45
2018-12-12T20:37:16.873Z,102487.41
2018-12-12T20:40:22.306Z,102491.98
2018-12-12T20:43:30.050Z,102490.14
2018-12-12T20:46:33.948Z,102489.58
2018-12-12T20:49:38.107Z,102489.72
2018-12-12T20:52:41.789Z,102498.50
2018-12-12T20:55:45.371Z,102502.24
2018-12-12T20:58:49.036Z,102496.40
2018-12-12T21:01:52.834Z,102503.97
2018-12-12T21:04:58.523Z,102496.29
2018-12-12T21:08:06.123Z,102493.26
2018-12-12T21:11:10.474Z,102494.06
2018-12-12T21:14:14.041Z,102497.45
2018-12-12T21:17:17.755Z,102492.12
2018-12-12T21:20:30.463Z,102489.33
2018-12-12T21:23:34.729Z,102484.64
2018-12-12T21:26:38.941Z,102486.80
2018-12-12T21:29:43.534Z,102484.55
2018-12-12T21:32:47.162Z,102483.58
2018-12-12T21:35:50.568Z,102482.74
2018-12-12T21:38:55.032Z,102477.60
2018-12-12T21:41:58.427Z,102482.26
2018-12-12T21:45:02.007Z,102479.92
2018-12-12T21:48:05.720Z,102483.14
2018-12-12T21:51:11.179Z,102472.91
2018-12-12T21:54:14.658Z,102470.89
2018-12-12T21:57:20.085Z,102471.04
2018-12-12T22:00:24.590Z,102468.72
2018-12-12T22:03:28.378Z,102473.60
2018-12-12T22:06:32.378Z,102467.59
2018-12-12T22:09:36.066Z,102470.00
2018-12-12T22:12:39.781Z,102468.31
2018-12-12T22:15:43.478Z,102471.35
2018-12-12T22:18:47.074Z,102468.15
2018-12-12T22:21:50.646Z,102469.98
2018-12-12T22:24:54.256Z,102468.82
2018-12-12T22:27:57.897Z,102463.36
2018-12-12T22:31:05.268Z,102467.47
2018-12-12T22:34:10.844Z,102466.17
2018-12-12T22:37:14.372Z,102464.11
2018-12-12T22:40:18.068Z,102459.82
2018-12-12T22:43:21.619Z,102460.93
2018-12-12T22:46:30.747Z,102466.42
2018-12-12T22:49:34.715Z,102456.63
2018-12-12T22:52:39.390Z,102459.69
2018-12-12T22:55:42.241Z,102460.72
2018-12-12T22:58:45.946Z,102465.54
2018-12-12T23:01:50.461Z,102468.56
2018-12-12T23:04:55.091Z,102462.32
2018-12-12T23:07:58.704Z,102460.83
2018-12-12T23:11:04.410Z,102451.24
2018-12-12T23:14:08.118Z,102447.50
2018-12-12T23:17:12.672Z,102450.03
2018-12-12T23:20:16.492Z,102445.15
2018-12-12T23:23:24.335Z,102443.42
2018-12-12T23:26:28.135Z,102444.01
2018-12-12T23:29:33.742Z,102445.70
2018-12-12T23:32:37.330Z,102440.49
2018-12-12T23:35:44.286Z,102435.84
2018-12-12T23:38:49.114Z,102428.92
2018-12-12T23:41:53.722Z,102427.57
2018-12-12T23:45:00.988Z,102420.38
2018-12-12T23:48:07.912Z,102414.95
2018-12-12T23:51:13.525Z,102415.40
2018-12-12T23:54:17.195Z,102410.96
2018-12-12T23:57:20.731Z,102411.28
